Big Bear Station Historical Data
Daily Summary for May 21, 2019 Units:  English    Metric   Both
Next Day »
Daily Weekly Monthly Yearly Custom
  High: Low: Average:
Temperature: 44.4 °F 30.9 °F 35.6 °F
Dew Point: 37 °F 29.3 °F 33 °F
Humidity: 99% 75% 91%
Wind Speed: 10.9mph 0mph 3.4mph
Wind Gust: -999mph - -
Wind- - WSW
Pressure: 23.36 in 23.19 in -
Precipitation: 0 in    
Historical Graphs
 
 
Tabular Data for May 21, 2019
Time Temperature Dew Point Pressure Wind Wind Speed Wind Gust Humidity Rainfall Rate (Hourly)
00:04 33.1 °F 32.1 °F 23.35 in NW 5.3 mph -999 mph 96% 0.00 in
00:19 32.9 °F 31.9 °F 23.35 in NW 4.2 mph -999 mph 96% 0.00 in
00:34 32.5 °F 31.5 °F 23.36 in Calm   -999 mph 96% 0.00 in
00:50 32.2 °F 31.4 °F 23.36 in Calm   -999 mph 97% 0.00 in
01:05 32 °F 31.2 °F 23.36 in Calm   -999 mph 97% 0.00 in
01:20 32 °F 31.2 °F 23.35 in NNE 3.7 mph -999 mph 97% 0.00 in
01:36 31.6 °F 30.8 °F 23.35 in Calm   -999 mph 97% 0.00 in
01:51 31.5 °F 30.7 °F 23.35 in West 2.7 mph -999 mph 97% 0.00 in
02:06 31.5 °F 30.7 °F 23.34 in NW 3.2 mph -999 mph 97% 0.00 in
02:21 31.3 °F 30.5 °F 23.34 in Calm   -999 mph 97% 0.00 in
02:36 31.1 °F 30.3 °F 23.34 in West 2.7 mph -999 mph 97% 0.00 in
02:52 31.3 °F 30.5 °F 23.33 in West 2.2 mph -999 mph 97% 0.00 in
03:07 31.3 °F 30.5 °F 23.33 in SW 1.7 mph -999 mph 97% 0.00 in
03:22 30.9 °F 30.1 °F 23.32 in NW 5.8 mph -999 mph 97% 0.00 in
03:38 31.3 °F 30.5 °F 23.32 in NNW 2.2 mph -999 mph 97% 0.00 in
03:53 31.5 °F 30.7 °F 23.32 in Calm   -999 mph 97% 0.00 in
04:08 31.5 °F 30.5 °F 23.31 in NE 6.8 mph -999 mph 96% 0.00 in
04:23 31.5 °F 30.2 °F 23.31 in Calm   -999 mph 95% 0.00 in
04:38 31.5 °F 30.2 °F 23.31 in Calm   -999 mph 95% 0.00 in
04:54 31.6 °F 30.3 °F 23.31 in South 4.2 mph -999 mph 95% 0.00 in
05:09 31.5 °F 30.2 °F 23.31 in Calm   -999 mph 95% 0.00 in
05:24 31.3 °F 30 °F 23.31 in NW 2.7 mph -999 mph 95% 0.00 in
05:39 31.3 °F 30.3 °F 23.31 in NNW 3.7 mph -999 mph 96% 0.00 in
05:54 31.5 °F 30.7 °F 23.31 in NNW 6.3 mph -999 mph 97% 0.00 in
06:10 31.5 °F 30.7 °F 23.30 in North 3.7 mph -999 mph 97% 0.00 in
06:25 31.5 °F 30.7 °F 23.30 in NNE 2.2 mph -999 mph 97% 0.00 in
06:41 31.8 °F 31 °F 23.30 in SSE 1.7 mph -999 mph 97% 0.00 in
06:56 32 °F 31.2 °F 23.30 in NW 4.7 mph -999 mph 97% 0.00 in
07:12 32.4 °F 31.1 °F 23.30 in West 3.2 mph -999 mph 95% 0.00 in
07:27 32.9 °F 31.6 °F 23.30 in SSW 7.3 mph -999 mph 95% 0.00 in
07:42 33.1 °F 31.3 °F 23.30 in WNW 5.3 mph -999 mph 93% 0.00 in
07:58 33.8 °F 31.7 °F 23.29 in WNW 7.8 mph -999 mph 92% 0.00 in
08:13 34.7 °F 32.1 °F 23.30 in NNW 5.3 mph -999 mph 90% 0.00 in
08:29 35.2 °F 32 °F 23.30 in NW 4.7 mph -999 mph 88% 0.00 in
08:44 36.3 °F 32.8 °F 23.30 in NNW 5.3 mph -999 mph 87% 0.00 in
08:59 37.2 °F 33.7 °F 23.29 in NW 5.3 mph -999 mph 87% 0.00 in
09:14 37.9 °F 34.1 °F 23.29 in NW 4.2 mph -999 mph 86% 0.00 in
09:30 38.8 °F 35 °F 23.29 in NW 5.8 mph -999 mph 86% 0.00 in
09:45 40.1 °F 35.4 °F 23.29 in NNW 3.7 mph -999 mph 83% 0.00 in
10:00 40.1 °F 34.7 °F 23.29 in NNW 3.7 mph -999 mph 81% 0.00 in
10:15 40.8 °F 35.7 °F 23.28 in NNW 3.7 mph -999 mph 82% 0.00 in
10:31 41.4 °F 36.3 °F 23.29 in WNW 6.8 mph -999 mph 82% 0.00 in
10:46 40.6 °F 35.5 °F 23.28 in SSE 4.2 mph -999 mph 82% 0.00 in
11:02 42.1 °F 36.4 °F 23.28 in WSW 2.7 mph -999 mph 80% 0.00 in
11:17 41.2 °F 36.1 °F 23.28 in East 5.3 mph -999 mph 82% 0.00 in
11:32 40.6 °F 35.5 °F 23.29 in ESE 5.3 mph -999 mph 82% 0.00 in
11:47 42.8 °F 35.4 °F 23.28 in SE 4.2 mph -999 mph 75% 0.00 in
12:03 44.4 °F 37 °F 23.27 in ESE 2.2 mph -999 mph 75% 0.00 in
12:19 42.1 °F 36.4 °F 23.27 in SSW 6.3 mph -999 mph 80% 0.00 in
12:34 42.6 °F 35.9 °F 23.27 in WNW 3.7 mph -999 mph 77% 0.00 in
12:49 43 °F 36.6 °F 23.28 in NW 10.9 mph -999 mph 78% 0.00 in
13:04 41 °F 36.5 °F 23.27 in SSW 5.3 mph -999 mph 84% 0.00 in
13:20 41.9 °F 36.8 °F 23.26 in SSE 1.7 mph -999 mph 82% 0.00 in
13:35 42.6 °F 36.2 °F 23.26 in South 3.7 mph -999 mph 78% 0.00 in
13:50 41.7 °F 36.9 °F 23.26 in NNW 6.3 mph -999 mph 83% 0.00 in
14:05 40.6 °F 36.1 °F 23.25 in North 2.7 mph -999 mph 84% 0.00 in
14:21 41.2 °F 37 °F 23.25 in South 4.2 mph -999 mph 85% 0.00 in
14:36 40.3 °F 36.4 °F 23.25 in Calm   -999 mph 86% 0.00 in
14:52 40.1 °F 36.3 °F 23.24 in SSW 1.7 mph -999 mph 86% 0.00 in
15:07 39.9 °F 36.1 °F 23.24 in SE 4.2 mph -999 mph 86% 0.00 in
15:22 41.2 °F 36.4 °F 23.23 in ESE 3.2 mph -999 mph 83% 0.00 in
15:38 39.6 °F 36.1 °F 23.23 in SSW 2.7 mph -999 mph 87% 0.00 in
15:53 38.3 °F 35.3 °F 23.23 in SE 1.7 mph -999 mph 89% 0.00 in
16:09 37.4 °F 35.3 °F 23.23 in WNW 3.7 mph -999 mph 92% 0.00 in
16:24 36.9 °F 35.1 °F 23.23 in Calm   -999 mph 93% 0.00 in
16:39 36.7 °F 35.1 °F 23.23 in SE 4.2 mph -999 mph 94% 0.00 in
16:54 36.5 °F 35.2 °F 23.21 in SSE 1.7 mph -999 mph 95% 0.00 in
17:09 36.3 °F 35 °F 23.20 in NW 3.2 mph -999 mph 95% 0.00 in
17:25 36 °F 35 °F 23.20 in West 3.2 mph -999 mph 96% 0.00 in
17:40 36 °F 35.2 °F 23.20 in Calm   -999 mph 97% 0.00 in
17:55 35.6 °F 35.1 °F 23.20 in NNW 5.3 mph -999 mph 98% 0.00 in
18:10 35.4 °F 34.9 °F 23.20 in SSE 5.8 mph -999 mph 98% 0.00 in
18:26 35.4 °F 34.9 °F 23.19 in South 2.2 mph -999 mph 98% 0.00 in
18:41 35.4 °F 34.9 °F 23.19 in WSW 1.1 mph -999 mph 98% 0.00 in
18:56 35.1 °F 34.6 °F 23.20 in Calm   -999 mph 98% 0.00 in
19:11 35.2 °F 34.9 °F 23.20 in NW 4.7 mph -999 mph 99% 0.00 in
19:27 34.9 °F 34.4 °F 23.20 in NNW 2.7 mph -999 mph 98% 0.00 in
19:42 35.1 °F 34.1 °F 23.20 in WNW 10.4 mph -999 mph 96% 0.00 in
19:57 34.7 °F 32.9 °F 23.19 in ENE 2.7 mph -999 mph 93% 0.00 in
20:12 34.5 °F 32.7 °F 23.20 in NNE 3.2 mph -999 mph 93% 0.00 in
20:28 34 °F 32.5 °F 23.20 in Calm   -999 mph 94% 0.00 in
20:43 33.6 °F 31.3 °F 23.20 in East 2.7 mph -999 mph 91% 0.00 in
20:58 33.8 °F 30.6 °F 23.19 in NW 6.3 mph -999 mph 88% 0.00 in
21:13 34 °F 31.4 °F 23.20 in North 3.7 mph -999 mph 90% 0.00 in
21:29 34 °F 31.1 °F 23.21 in NW 5.3 mph -999 mph 89% 0.00 in
21:44 34 °F 30.8 °F 23.21 in WNW 4.7 mph -999 mph 88% 0.00 in
21:59 33.4 °F 30.5 °F 23.21 in West 3.2 mph -999 mph 89% 0.00 in
22:14 33.3 °F 30.1 °F 23.21 in Calm   -999 mph 88% 0.00 in
22:29 33.3 °F 30.4 °F 23.20 in NNW 2.2 mph -999 mph 89% 0.00 in
22:45 33.3 °F 30.4 °F 23.20 in NW 4.7 mph -999 mph 89% 0.00 in
23:00 33.4 °F 30.2 °F 23.20 in NW 4.2 mph -999 mph 88% 0.00 in
23:15 33.4 °F 29.9 °F 23.20 in North 1.1 mph -999 mph 87% 0.00 in
23:32 32.9 °F 29.7 °F 23.19 in SSW 1.7 mph -999 mph 88% 0.00 in
23:47 32.5 °F 29.3 °F 23.19 in NW 3.7 mph -999 mph 88% 0.00 in
Big Bear CA Weather